METAR for South-East England Channel Islands and France - 23 Oct 2017 - 0948 UTC - RocketRoute WX - rrwx.com
LFOB 230930Z AUTO 24010KT 9999 FEW010 BKN052 OVC076 12/10 Q1022 TEMPO 4000 RA BKN008 BKN030 LFBD 230930Z AUTO 20005KT 160V230 CAVOK 16/12 Q1027 NOSIG EGHH 230920Z 23011KT 3000 -RA BR BKN004 15/14 Q1017 LFRB 230930Z AUTO 23016KT 190V250 5000 -DZ BR OVC004/// ///TCU 14/14 Q1021 TEMPO 22015G25KT OVC002 LFRK 230930Z AUTO 22010KT 9999 BKN012 OVC052 13/12 Q1022 TEMPO RA BECMG BKN015 LFRC 230930Z AUTO 20015KT 3700 BR OVC005 13/13 Q1020 TEMPO 23015G25KT 2000 RADZ LFRG 230930Z AUTO 22009KT 9999 -DZ BKN006 BKN010 OVC020 11/10 Q1022 TEMPO RA LFRD 230930Z AUTO 20010KT 6000 -DZ BKN007 BKN011 BKN017 13/13 Q1022 TEMPO RA BECMG BKN015 EGLF 230920Z 20009KT 5000 -RADZ BKN005 13/13 Q1017 EGJB 230920Z 22018KT 2000 -RADZ VCFG FEW000 BKN001 14/14 Q1019 EGJJ 230920Z 21014KT 3500 -DZ BR FEW002 BKN003 14/14 Q1020 LFPB 230930Z AUTO 24007KT CAVOK 12/09 Q1023 NOSIG LFRM 230930Z AUTO VRB03KT 9999 FEW007 SCT025 BKN044 12/11 Q1025 NOSIG LFQQ 230930Z AUTO 22011KT 9999 FEW025 BKN054 OVC068 12/10 Q1020 TEMPO 4000 -RA BKN008 OVC020 EGGW 230920Z AUTO 19006KT 160V220 9000 OVC004 11/10 Q1017 EGLC 230920Z AUTO 22007KT 190V290 9999 BKN013 BKN036 OVC048 14/11 Q1018 EGKK 230920Z 21006KT 6000 -DZRA BKN005 14/13 Q1018 REDZ EGLL 230920Z AUTO 20008KT 160V250 9999 BKN007 OVC025 13/12 Q1017 TEMPO 4000 -RADZ EGSS 230920Z AUTO 20007KT 9999 BKN010 OVC023 12/10 Q1018 LFPO 230930Z 24005KT 9999 FEW040 OVC060 12/09 Q1023 NOSIG LFPG 230930Z 23008KT 200V280 9999 FEW015 BKN053 12/10 Q1023 NOSIG LFRN 230930Z AUTO 19008KT 9999 FEW018 OVC047 14/13 Q1023 TEMPO RA EGHI 230920Z 20008KT 170V230 6000 -RADZ BKN005 14/13 Q1017 EGMC 230920Z 20006KT 9999 FEW023 BKN035 12/09 Q1018 LFPN 230930Z AUTO 25009KT 9999 FEW038 BKN062 OVC084 12/09 Q1023 TEMPO 4000 -RADZ BKN008

RocketRoute WX - rrwx.com weather for pilots